createdAt,value
2018-03-08T00:01:03.540Z,98744.88
2018-03-08T00:03:34.188Z,98740.69
2018-03-08T00:06:05.110Z,98751.11
2018-03-08T00:08:36.342Z,98759.81
2018-03-08T00:11:07.041Z,98756.15
2018-03-08T00:13:38.382Z,98759.34
2018-03-08T00:16:09.076Z,98753.53
2018-03-08T00:18:40.383Z,98754.03
2018-03-08T00:21:12.484Z,98758.83
2018-03-08T00:23:41.737Z,98753.19
2018-03-08T00:26:12.358Z,98760.67
2018-03-08T00:28:43.170Z,98752.80
2018-03-08T00:31:17.385Z,98759.01
2018-03-08T00:33:46.529Z,98761.13
2018-03-08T00:36:16.479Z,98755.96
2018-03-08T00:38:47.219Z,98746.22
2018-03-08T00:41:18.019Z,98744.91
2018-03-08T00:43:49.836Z,98749.30
2018-03-08T00:46:20.363Z,98756.63
2018-03-08T00:48:51.121Z,98755.07
2018-03-08T00:51:21.972Z,98753.95
2018-03-08T00:53:54.308Z,98753.70
2018-03-08T00:56:24.728Z,98760.99
2018-03-08T00:58:55.738Z,98757.13
2018-03-08T01:01:25.662Z,98759.48
2018-03-08T01:03:56.156Z,98770.39
2018-03-08T01:06:28.023Z,98757.45
2018-03-08T01:08:58.802Z,98756.39
2018-03-08T01:11:30.383Z,98764.13
2018-03-08T01:14:00.823Z,98763.09
2018-03-08T01:16:31.449Z,98762.97
2018-03-08T01:19:02.062Z,98758.74
2018-03-08T01:21:33.373Z,98766.19
2018-03-08T01:24:05.006Z,98754.82
2018-03-08T01:26:35.762Z,98767.39
2018-03-08T01:29:06.393Z,98762.78
2018-03-08T01:31:37.833Z,98772.72
2018-03-08T01:34:08.481Z,98768.85
2018-03-08T01:36:39.139Z,98782.61
2018-03-08T01:39:10.156Z,98778.77
2018-03-08T01:41:40.667Z,98783.72
2018-03-08T01:44:11.306Z,98782.54
2018-03-08T01:46:42.122Z,98783.39
2018-03-08T01:49:13.479Z,98783.39
2018-03-08T01:51:55.431Z,98780.00
2018-03-08T01:54:25.023Z,98786.18
2018-03-08T01:56:54.328Z,98792.41
2018-03-08T01:59:23.492Z,98794.36
2018-03-08T02:01:52.757Z,98789.20
2018-03-08T02:04:21.886Z,98791.34
2018-03-08T02:06:51.017Z,98796.05
2018-03-08T02:09:21.662Z,98801.22
2018-03-08T02:11:52.315Z,98806.20
2018-03-08T02:14:23.575Z,98800.58
2018-03-08T02:16:54.552Z,98800.62
2018-03-08T02:19:25.262Z,98802.10
2018-03-08T02:21:55.865Z,98797.69
2018-03-08T02:24:28.991Z,98809.03
2018-03-08T02:26:58.192Z,98805.69
2018-03-08T02:29:27.768Z,98809.50
2018-03-08T02:31:58.358Z,98803.91
2018-03-08T02:34:28.853Z,98803.73
2018-03-08T02:36:59.486Z,98810.16
2018-03-08T02:39:30.166Z,98815.62
2018-03-08T02:42:01.342Z,98812.23
2018-03-08T02:44:32.202Z,98810.92
2018-03-08T02:47:03.971Z,98815.97
2018-03-08T02:49:34.609Z,98823.61
2018-03-08T02:52:05.266Z,98822.38
2018-03-08T02:54:35.930Z,98818.11
2018-03-08T02:57:06.303Z,98819.30
2018-03-08T02:59:37.274Z,98817.80
2018-03-08T03:02:08.826Z,98826.56
2018-03-08T03:04:40.927Z,98827.79
2018-03-08T03:07:12.548Z,98829.94
2018-03-08T03:09:41.741Z,98824.48
2018-03-08T03:12:13.326Z,98814.00
2018-03-08T03:14:43.875Z,98819.03
2018-03-08T03:17:15.180Z,98819.72
2018-03-08T03:19:46.110Z,98823.89
2018-03-08T03:22:15.468Z,98822.76
2018-03-08T03:24:46.048Z,98823.26
2018-03-08T03:27:17.412Z,98828.80
2018-03-08T03:29:48.950Z,98813.11
2018-03-08T03:32:20.436Z,98820.51
2018-03-08T03:34:52.266Z,98816.31
2018-03-08T03:37:21.788Z,98817.97
2018-03-08T03:39:52.506Z,98824.18
2018-03-08T03:42:23.138Z,98824.02
2018-03-08T03:44:54.273Z,98821.14
2018-03-08T03:47:24.703Z,98822.23
2018-03-08T03:49:55.691Z,98831.12
2018-03-08T03:52:26.126Z,98829.42
2018-03-08T03:54:57.717Z,98829.68
2018-03-08T03:57:32.532Z,98830.57
2018-03-08T04:00:01.785Z,98831.28
2018-03-08T04:02:31.086Z,98835.39
2018-03-08T04:05:00.684Z,98845.91
2018-03-08T04:07:31.254Z,98842.82
2018-03-08T04:10:03.118Z,98843.08
2018-03-08T04:12:33.917Z,98842.63
2018-03-08T04:15:04.116Z,98850.70
2018-03-08T04:17:35.929Z,98849.23
2018-03-08T04:20:08.090Z,98852.83
2018-03-08T04:22:37.777Z,98858.52
2018-03-08T04:25:09.121Z,98861.66
2018-03-08T04:27:39.795Z,98859.38
2018-03-08T04:30:11.739Z,98857.83
2018-03-08T04:32:41.662Z,98868.95
2018-03-08T04:35:12.516Z,98860.61
2018-03-08T04:37:43.121Z,98858.96
2018-03-08T04:40:14.628Z,98859.09
2018-03-08T04:42:45.345Z,98863.31
2018-03-08T04:45:16.643Z,98863.66
2018-03-08T04:47:46.145Z,98857.23
2018-03-08T04:50:17.237Z,98855.92
2018-03-08T04:52:52.228Z,98853.84
2018-03-08T04:55:21.539Z,98862.73
2018-03-08T04:57:51.440Z,98866.06
2018-03-08T05:00:21.451Z,98870.28
2018-03-08T05:02:52.049Z,98877.86
2018-03-08T05:05:24.556Z,98875.11
2018-03-08T05:07:57.030Z,98878.02
2018-03-08T05:10:25.921Z,98880.80
2018-03-08T05:12:55.710Z,98881.56
2018-03-08T05:15:27.302Z,98885.73
2018-03-08T05:17:57.876Z,98888.50
2018-03-08T05:20:28.601Z,98888.11
2018-03-08T05:22:59.995Z,98890.69
2018-03-08T05:25:30.587Z,98885.36
2018-03-08T05:28:01.420Z,98902.06
2018-03-08T05:30:36.460Z,98914.12
2018-03-08T05:33:05.580Z,98909.82
2018-03-08T05:35:34.719Z,98909.61
2018-03-08T05:38:03.936Z,98912.73
2018-03-08T05:40:34.532Z,98915.06
2018-03-08T05:43:04.887Z,98917.34
2018-03-08T05:45:35.402Z,98926.02
2018-03-08T05:48:06.114Z,98921.61
2018-03-08T05:50:36.661Z,98928.13
2018-03-08T05:53:08.431Z,98937.16
2018-03-08T05:55:38.775Z,98947.70
2018-03-08T05:58:09.408Z,98948.31
2018-03-08T06:00:42.210Z,98951.02
2018-03-08T06:03:11.699Z,98961.70
2018-03-08T06:05:42.232Z,98955.70
2018-03-08T06:08:13.383Z,98964.05
2018-03-08T06:10:43.671Z,98973.70
2018-03-08T06:13:14.604Z,98973.91
2018-03-08T06:15:45.159Z,98980.20
2018-03-08T06:18:16.843Z,98985.16
2018-03-08T06:20:48.531Z,98989.70
2018-03-08T06:23:18.536Z,98990.53
2018-03-08T06:25:49.186Z,98990.95
2018-03-08T06:28:20.534Z,98998.61
2018-03-08T06:30:50.789Z,98996.59
2018-03-08T06:33:22.393Z,99000.12
2018-03-08T06:35:53.105Z,99001.13
2018-03-08T06:38:24.074Z,98998.73
2018-03-08T06:40:55.619Z,99001.41
2018-03-08T06:43:26.288Z,99004.38
2018-03-08T06:45:57.063Z,99017.28
2018-03-08T06:48:28.480Z,99012.17
2018-03-08T06:50:58.855Z,99016.84
2018-03-08T06:53:30.496Z,99024.23
2018-03-08T06:56:01.237Z,99032.29
2018-03-08T06:58:32.832Z,99032.16
2018-03-08T07:01:03.469Z,99035.47
2018-03-08T07:03:34.378Z,99038.49
2018-03-08T07:06:05.266Z,99041.30
2018-03-08T07:08:36.378Z,99046.61
2018-03-08T07:11:06.764Z,99048.05
2018-03-08T07:13:37.146Z,99052.64
2018-03-08T07:16:07.911Z,99051.36
2018-03-08T07:18:38.708Z,99058.18
2018-03-08T07:21:08.694Z,99057.77
2018-03-08T07:23:39.393Z,99058.19
2018-03-08T07:26:10.702Z,99067.48
2018-03-08T07:28:41.340Z,99070.30
2018-03-08T07:31:12.487Z,99075.84
2018-03-08T07:33:43.643Z,99073.21
2018-03-08T07:36:15.099Z,99076.00
2018-03-08T07:38:45.853Z,99074.52
2018-03-08T07:41:16.635Z,99074.78
2018-03-08T07:43:48.391Z,99074.32
2018-03-08T07:46:19.266Z,99078.57
2018-03-08T07:48:49.733Z,99073.23
2018-03-08T07:51:20.302Z,99077.02
2018-03-08T07:53:50.700Z,99086.92
2018-03-08T07:56:21.416Z,99095.19
2018-03-08T07:58:52.168Z,99084.70
2018-03-08T08:01:23.017Z,99091.23
2018-03-08T08:03:54.395Z,99089.97
2018-03-08T08:06:36.086Z,99092.38
2018-03-08T08:09:10.974Z,99095.66
2018-03-08T08:11:40.205Z,99095.23
2018-03-08T08:14:09.406Z,99097.31
2018-03-08T08:16:39.044Z,99096.13
2018-03-08T08:19:08.385Z,99105.19
2018-03-08T08:21:37.542Z,99102.61
2018-03-08T08:24:06.800Z,99098.20
2018-03-08T08:26:35.963Z,99107.45
2018-03-08T08:29:05.178Z,99106.72
2018-03-08T08:31:36.182Z,99113.04
2018-03-08T08:34:05.457Z,99115.08
2018-03-08T08:36:35.686Z,99124.87
2018-03-08T08:39:05.855Z,99123.55
2018-03-08T08:41:37.280Z,99128.52
2018-03-08T08:44:08.084Z,99128.30
2018-03-08T08:46:39.456Z,99139.48
2018-03-08T08:49:09.937Z,99135.73
2018-03-08T08:51:40.166Z,99139.24
2018-03-08T08:54:12.137Z,99140.98
2018-03-08T08:56:42.759Z,99141.02
2018-03-08T08:59:13.334Z,99142.77
2018-03-08T09:01:44.162Z,99147.00
2018-03-08T09:04:15.171Z,99145.55
2018-03-08T09:06:46.046Z,99146.45
2018-03-08T09:09:17.585Z,99154.86
2018-03-08T09:11:48.155Z,99153.43
2018-03-08T09:14:19.176Z,99159.39
2018-03-08T09:16:50.115Z,99161.72
2018-03-08T09:19:21.180Z,99156.61
2018-03-08T09:21:52.031Z,99162.44
2018-03-08T09:24:23.532Z,99163.16
2018-03-08T09:26:54.133Z,99167.11
2018-03-08T09:29:25.454Z,99167.56
2018-03-08T09:31:56.030Z,99176.35
2018-03-08T09:34:26.650Z,99170.34
2018-03-08T09:36:56.500Z,99171.52
2018-03-08T09:39:27.272Z,99174.97
2018-03-08T09:41:58.132Z,99168.20
2018-03-08T09:44:28.740Z,99162.30
2018-03-08T09:46:59.033Z,99169.28
2018-03-08T09:49:30.400Z,99169.66
2018-03-08T09:52:01.048Z,99168.03
2018-03-08T09:54:32.538Z,99166.55
2018-03-08T09:57:02.654Z,99159.97
2018-03-08T09:59:33.325Z,99169.16
2018-03-08T10:02:04.124Z,99172.52
2018-03-08T10:04:35.568Z,99162.84
2018-03-08T10:07:06.237Z,99163.75
2018-03-08T10:09:36.679Z,99161.14
2018-03-08T10:12:07.384Z,99172.53
2018-03-08T10:14:38.187Z,99165.05
2018-03-08T10:17:09.564Z,99163.88
2018-03-08T10:19:40.615Z,99168.78
2018-03-08T10:22:10.244Z,99162.75
2018-03-08T10:24:41.103Z,99165.05
2018-03-08T10:27:12.080Z,99187.84
2018-03-08T10:29:43.476Z,99175.03
2018-03-08T10:32:14.889Z,99165.18
2018-03-08T10:34:45.674Z,99178.74
2018-03-08T10:37:16.418Z,99175.02
2018-03-08T10:39:47.716Z,99178.56
2018-03-08T10:42:18.275Z,99174.88
2018-03-08T10:44:49.233Z,99194.02
2018-03-08T10:47:20.141Z,99175.44
2018-03-08T10:49:50.804Z,99179.94
2018-03-08T10:52:22.375Z,99187.39
2018-03-08T10:54:53.211Z,99192.75
2018-03-08T10:57:24.113Z,99196.80
2018-03-08T10:59:55.576Z,99188.45
2018-03-08T11:02:31.627Z,99192.59
2018-03-08T11:05:01.496Z,99213.19
2018-03-08T11:07:30.622Z,99205.61
2018-03-08T11:10:03.898Z,99200.56
2018-03-08T11:12:33.024Z,99194.95
2018-03-08T11:15:02.184Z,99202.28
2018-03-08T11:17:32.668Z,99198.59
2018-03-08T11:20:03.254Z,99198.66
2018-03-08T11:22:34.148Z,99205.52
2018-03-08T11:25:05.065Z,99208.41
2018-03-08T11:27:36.535Z,99210.72
2018-03-08T11:30:07.129Z,99215.48
2018-03-08T11:32:38.553Z,99214.48
2018-03-08T11:35:09.064Z,99212.84
2018-03-08T11:37:40.040Z,99221.42
2018-03-08T11:40:12.229Z,99220.52
2018-03-08T11:42:42.679Z,99218.78
2018-03-08T11:45:12.500Z,99220.52
2018-03-08T11:47:43.155Z,99217.97
2018-03-08T11:50:14.020Z,99212.84
2018-03-08T11:52:45.408Z,99224.67
2018-03-08T11:55:16.029Z,99232.66
2018-03-08T11:57:47.004Z,99229.87
2018-03-08T12:00:18.244Z,99227.13
2018-03-08T12:02:49.121Z,99238.03
2018-03-08T12:05:20.412Z,99232.18
2018-03-08T12:07:51.106Z,99238.02
2018-03-08T12:10:22.042Z,99241.46
2018-03-08T12:12:53.041Z,99241.20
2018-03-08T12:15:24.383Z,99263.83
2018-03-08T12:17:55.124Z,99250.00
2018-03-08T12:20:26.352Z,99253.40
2018-03-08T12:22:57.100Z,99258.61
2018-03-08T12:25:28.334Z,99257.60
2018-03-08T12:27:59.028Z,99262.49
2018-03-08T12:30:30.328Z,99257.98
2018-03-08T12:33:01.375Z,99273.23
2018-03-08T12:35:32.026Z,99263.34
2018-03-08T12:38:03.443Z,99269.27
2018-03-08T12:40:34.125Z,99267.28
2018-03-08T12:43:05.108Z,99282.14
2018-03-08T12:45:36.405Z,99276.42
2018-03-08T12:48:07.167Z,99282.13
2018-03-08T12:50:38.163Z,99280.95
2018-03-08T12:53:09.088Z,99290.94
2018-03-08T12:55:40.628Z,99288.91
2018-03-08T12:58:10.012Z,99297.51
2018-03-08T13:00:40.708Z,99296.61
2018-03-08T13:03:12.029Z,99298.31
2018-03-08T13:05:42.696Z,99298.07
2018-03-08T13:08:13.608Z,99308.88
2018-03-08T13:10:44.515Z,99305.73
2018-03-08T13:13:17.148Z,99307.55
2018-03-08T13:15:48.626Z,99320.04
2018-03-08T13:18:18.478Z,99313.37
2018-03-08T13:20:49.214Z,99315.29
2018-03-08T13:23:20.029Z,99312.46
2018-03-08T13:25:50.691Z,99319.37
2018-03-08T13:28:21.258Z,99311.75
2018-03-08T13:30:52.167Z,99312.90
2018-03-08T13:33:23.097Z,99318.45
2018-03-08T13:35:54.512Z,99322.52
2018-03-08T13:38:25.114Z,99310.66
2018-03-08T13:40:56.111Z,99310.64
2018-03-08T13:43:27.078Z,99314.42
2018-03-08T13:45:58.429Z,99319.05
2018-03-08T13:48:28.709Z,99308.13
2018-03-08T13:50:59.374Z,99310.05
2018-03-08T13:53:30.051Z,99306.20
2018-03-08T13:56:01.656Z,99311.61
2018-03-08T13:58:32.340Z,99312.09
2018-03-08T14:01:03.182Z,99311.03
2018-03-08T14:03:34.306Z,99314.36
2018-03-08T14:06:04.923Z,99311.39
2018-03-08T14:08:36.598Z,99296.64
2018-03-08T14:11:06.568Z,99294.52
2018-03-08T14:13:37.271Z,99291.17
2018-03-08T14:16:08.169Z,99289.66
2018-03-08T14:18:38.991Z,99292.06
2018-03-08T14:21:10.365Z,99287.34
2018-03-08T14:23:41.214Z,99294.10
2018-03-08T14:26:12.098Z,99295.19
2018-03-08T14:28:43.379Z,99291.92
2018-03-08T14:31:15.139Z,99289.71
2018-03-08T14:33:45.688Z,99293.43
2018-03-08T14:36:16.449Z,99295.42
2018-03-08T14:38:47.190Z,99286.36
2018-03-08T14:41:17.845Z,99285.69
2018-03-08T14:43:48.437Z,99287.70
2018-03-08T14:46:20.116Z,99289.16
2018-03-08T14:48:51.724Z,99297.69
2018-03-08T14:51:22.443Z,99286.73
2018-03-08T14:53:52.786Z,99289.33
2018-03-08T14:56:23.480Z,99280.50
2018-03-08T14:58:54.180Z,99287.03
2018-03-08T15:01:25.171Z,99284.73
2018-03-08T15:03:55.666Z,99291.47
2018-03-08T15:06:27.467Z,99283.80
2018-03-08T15:08:57.546Z,99297.00
2018-03-08T15:11:28.251Z,99294.91
2018-03-08T15:13:58.761Z,99291.03
2018-03-08T15:16:28.789Z,99288.35
2018-03-08T15:18:59.658Z,99290.45
2018-03-08T15:21:30.423Z,99294.77
2018-03-08T15:24:01.221Z,99281.42
2018-03-08T15:26:32.697Z,99283.52
2018-03-08T15:29:03.377Z,99282.55
2018-03-08T15:31:35.004Z,99282.52
2018-03-08T15:34:05.414Z,99278.55
2018-03-08T15:36:35.881Z,99279.13
2018-03-08T15:39:06.535Z,99282.75
2018-03-08T15:41:37.523Z,99281.12
2018-03-08T15:44:07.548Z,99282.05
2018-03-08T15:46:38.254Z,99281.77
2018-03-08T15:49:09.003Z,99291.64
2018-03-08T15:51:40.412Z,99287.38
2018-03-08T15:54:11.112Z,99282.11
2018-03-08T15:56:41.905Z,99283.38
2018-03-08T15:59:12.414Z,99280.17
2018-03-08T16:01:43.140Z,99278.05
2018-03-08T16:04:14.073Z,99285.34
2018-03-08T16:10:15.601Z,99282.72
2018-03-08T16:12:44.701Z,99283.39
2018-03-08T16:15:13.586Z,99276.64
2018-03-08T16:17:47.577Z,99281.36
2018-03-08T16:20:16.578Z,99282.93
2018-03-08T16:22:45.589Z,99286.48
2018-03-08T16:25:14.871Z,99288.95
2018-03-08T16:27:43.652Z,99282.41
2018-03-08T16:30:12.642Z,99284.63
2018-03-08T16:32:41.485Z,99286.45
2018-03-08T16:35:10.609Z,99287.12
2018-03-08T16:37:39.598Z,99287.27
2018-03-08T16:40:08.412Z,99292.55
2018-03-08T16:42:37.512Z,99288.14
2018-03-08T16:45:06.543Z,99294.00
2018-03-08T16:47:35.696Z,99286.39
2018-03-08T16:50:04.441Z,99294.14
2018-03-08T16:52:33.542Z,99294.66
2018-03-08T16:55:02.737Z,99295.13
2018-03-08T16:57:31.699Z,99295.04
2018-03-08T17:00:00.588Z,99305.77
2018-03-08T17:02:29.733Z,99307.77
2018-03-08T17:04:58.625Z,99310.69
2018-03-08T17:07:27.375Z,99312.76
2018-03-08T17:09:56.606Z,99312.98
2018-03-08T17:12:25.577Z,99311.77
2018-03-08T17:14:54.432Z,99321.30
2018-03-08T17:17:23.443Z,99320.13
2018-03-08T17:19:52.758Z,99323.56
2018-03-08T17:22:21.864Z,99324.05
2018-03-08T17:24:51.408Z,99328.53
2018-03-08T17:27:20.730Z,99326.86
2018-03-08T17:29:50.065Z,99328.97
2018-03-08T17:32:19.477Z,99324.97
2018-03-08T17:34:48.718Z,99334.55
2018-03-08T17:37:18.651Z,99332.20
2018-03-08T17:39:49.704Z,99333.07
2018-03-08T17:42:19.502Z,99338.06
2018-03-08T17:44:50.122Z,99334.52
2018-03-08T17:47:21.023Z,99335.48
2018-03-08T17:49:51.638Z,99337.16
2018-03-08T17:52:21.739Z,99336.11
2018-03-08T17:54:52.736Z,99343.55
2018-03-08T17:57:23.604Z,99345.03
2018-03-08T17:59:54.664Z,99347.52
2018-03-08T18:02:25.592Z,99348.31
2018-03-08T18:04:56.508Z,99351.59
2018-03-08T18:07:27.439Z,99345.87
2018-03-08T18:09:58.432Z,99348.42
2018-03-08T18:12:29.365Z,99346.17
2018-03-08T18:15:00.400Z,99347.31
2018-03-08T18:17:31.337Z,99344.17
2018-03-08T18:20:02.793Z,99348.76
2018-03-08T18:22:33.680Z,99347.10
2018-03-08T18:25:04.648Z,99343.70
2018-03-08T18:27:35.497Z,99354.83
2018-03-08T18:30:06.478Z,99346.89
2018-03-08T18:32:37.391Z,99351.98
2018-03-08T18:35:08.487Z,99349.56
2018-03-08T18:37:39.078Z,99345.01
2018-03-08T18:40:10.703Z,99349.38
2018-03-08T18:42:41.590Z,99350.31
2018-03-08T18:45:12.503Z,99346.73
2018-03-08T18:47:43.449Z,99348.48
2018-03-08T18:50:14.402Z,99344.80
2018-03-08T18:52:46.032Z,99346.36
2018-03-08T18:55:17.420Z,99346.48
2018-03-08T18:57:48.036Z,99342.77
2018-03-08T19:00:19.475Z,99346.72
2018-03-08T19:02:50.036Z,99344.45
2018-03-08T19:05:21.463Z,99340.83
2018-03-08T19:07:52.067Z,99345.20
2018-03-08T19:10:23.436Z,99351.03
2018-03-08T19:12:54.117Z,99349.98
2018-03-08T19:15:25.064Z,99349.16
2018-03-08T19:17:56.463Z,99346.97
2018-03-08T19:20:27.145Z,99345.78
2018-03-08T19:22:58.069Z,99347.93
2018-03-08T19:25:29.446Z,99338.52
2018-03-08T19:28:00.010Z,99339.47
2018-03-08T19:30:31.472Z,99340.61
2018-03-08T19:33:02.089Z,99339.69
2018-03-08T19:35:33.554Z,99338.52
2018-03-08T19:38:04.153Z,99339.70
2018-03-08T19:40:35.126Z,99331.96
2018-03-08T19:43:06.056Z,99334.32
2018-03-08T19:45:36.710Z,99336.25
2018-03-08T19:48:07.211Z,99334.26
2018-03-08T19:50:38.105Z,99334.62
2018-03-08T19:53:08.584Z,99343.45
2018-03-08T19:55:40.576Z,99318.59
2018-03-08T19:58:10.497Z,99347.95
2018-03-08T20:00:40.464Z,99346.44
2018-03-08T20:03:11.061Z,99343.47
2018-03-08T20:05:42.386Z,99343.11
2018-03-08T20:08:13.051Z,99342.77
2018-03-08T20:10:44.917Z,99339.93
2018-03-08T20:13:15.483Z,99344.77
2018-03-08T20:15:46.166Z,99337.78
2018-03-08T20:18:17.145Z,99336.72
2018-03-08T20:20:48.090Z,99336.11
2018-03-08T20:23:19.289Z,99338.87
2018-03-08T20:25:50.059Z,99345.92
2018-03-08T20:28:20.591Z,99344.95
2018-03-08T20:30:51.284Z,99340.02
2018-03-08T20:33:22.041Z,99341.81
2018-03-08T20:35:53.545Z,99331.38
2018-03-08T20:38:24.156Z,99329.11
2018-03-08T20:40:54.915Z,99324.75
2018-03-08T20:43:26.273Z,99330.13
2018-03-08T20:45:57.197Z,99326.61
2018-03-08T20:48:27.994Z,99329.16
2018-03-08T20:50:59.427Z,99332.95
2018-03-08T20:53:30.629Z,99328.13
2018-03-08T20:56:01.235Z,99327.82
2018-03-08T20:58:31.945Z,99324.58
2018-03-08T21:01:03.506Z,99322.30
2018-03-08T21:03:34.281Z,99322.92
2018-03-08T21:06:05.208Z,99329.70
2018-03-08T21:08:36.088Z,99322.72
2018-03-08T21:11:07.432Z,99326.08
2018-03-08T21:13:38.096Z,99316.59
2018-03-08T21:16:09.079Z,99325.27
2018-03-08T21:18:40.437Z,99328.89
2018-03-08T21:21:11.238Z,99325.58
2018-03-08T21:23:42.237Z,99328.55
2018-03-08T21:26:13.160Z,99334.91
2018-03-08T21:28:44.052Z,99333.06
2018-03-08T21:31:15.712Z,99326.77
2018-03-08T21:33:46.337Z,99332.56
2018-03-08T21:36:17.183Z,99329.16
2018-03-08T21:38:48.411Z,99321.64
2018-03-08T21:41:19.115Z,99325.39
2018-03-08T21:43:50.428Z,99320.64
2018-03-08T21:46:21.082Z,99315.16
2018-03-08T21:48:52.374Z,99319.87
2018-03-08T21:51:23.015Z,99325.11
2018-03-08T21:53:53.545Z,99330.52
2018-03-08T21:56:25.747Z,99321.80
2018-03-08T21:58:55.560Z,99319.06
2018-03-08T22:01:26.149Z,99317.94
2018-03-08T22:03:57.042Z,99318.36
2018-03-08T22:06:28.264Z,99314.92
2018-03-08T22:08:59.154Z,99312.30
2018-03-08T22:11:30.087Z,99323.80
2018-03-08T22:14:01.340Z,99309.30
2018-03-08T22:16:32.031Z,99313.69
2018-03-08T22:19:03.401Z,99314.73
2018-03-08T22:21:34.127Z,99310.77
2018-03-08T22:24:05.414Z,99304.31
2018-03-08T22:26:36.059Z,99305.13
2018-03-08T22:29:07.351Z,99298.06
2018-03-08T22:31:39.082Z,99303.24
2018-03-08T22:34:09.569Z,99297.95
2018-03-08T22:36:40.212Z,99302.34
2018-03-08T22:39:11.015Z,99296.83
2018-03-08T22:41:42.459Z,99291.31
2018-03-08T22:44:13.103Z,99288.20
2018-03-08T22:46:44.071Z,99288.62
2018-03-08T22:49:14.656Z,99285.77
2018-03-08T22:51:45.239Z,99283.30
2018-03-08T22:54:16.249Z,99283.10
2018-03-08T22:56:47.126Z,99293.30
2018-03-08T22:59:18.029Z,99295.84
2018-03-08T23:04:53.953Z,99299.73
2018-03-08T23:07:22.797Z,99299.16
2018-03-08T23:09:51.641Z,99305.44
2018-03-08T23:12:20.600Z,99304.28
2018-03-08T23:14:49.799Z,99300.27
2018-03-08T23:17:18.648Z,99304.48
2018-03-08T23:19:47.601Z,99308.14
2018-03-08T23:22:16.699Z,99295.80
2018-03-08T23:24:45.577Z,99293.52
2018-03-08T23:27:14.626Z,99293.94
2018-03-08T23:29:43.808Z,99295.94
2018-03-08T23:32:13.055Z,99291.61
2018-03-08T23:34:42.159Z,99287.80
2018-03-08T23:37:11.393Z,99297.67
2018-03-08T23:39:40.496Z,99292.72
2018-03-08T23:42:09.638Z,99284.47
2018-03-08T23:44:38.861Z,99276.48
2018-03-08T23:47:07.961Z,99284.82
2018-03-08T23:49:37.388Z,99279.80
2018-03-08T23:52:06.504Z,99274.81
2018-03-08T23:54:36.300Z,99276.83
2018-03-08T23:57:07.095Z,99273.38
2018-03-08T23:59:41.439Z,99272.28
